Time;durP1;ratioP1;P1;durP2;ratioP2;P2;SDS_P1;SDS_P2;PMS_P1;PMS_P2;Temp;Humidity;BMP_temperature;BMP_pressure;BME280_temperature;BME280_humidity;BME280_pressure;Samples;Min_cycle;Max_cycle;Signal;HPM_P1;HPM_P2
2023/05/19 00:01:06;;;;;;;;;;;8.00;99.90;;;;;;5067984;28;19924;-78
2023/05/19 00:03:32;;;;;;;;;;;8.00;99.90;;;;;;5084682;28;19931;-78
2023/05/19 00:06:00;;;;;;;;;;;8.00;99.90;;;;;;5091171;28;20363;-78
2023/05/19 00:08:29;;;;;;;;;;;8.00;99.90;;;;;;5070539;28;19924;-78
2023/05/19 00:10:55;;;;;;;;;;;8.00;99.90;;;;;;5066562;28;19963;-77
2023/05/19 00:13:21;;;;;;;;;;;8.00;99.90;;;;;;5050383;28;19924;-78
2023/05/19 00:15:47;;;;;;;;;;;7.90;99.90;;;;;;5078661;28;20596;-78
2023/05/19 00:18:13;;;;;;;;;;;7.90;99.90;;;;;;5067735;28;19924;-77
2023/05/19 00:20:38;;;;;;;;;;;7.90;99.90;;;;;;5114987;28;19924;-78
2023/05/19 00:23:04;;;;;;;;;;;7.90;99.90;;;;;;5107402;28;19931;-78
2023/05/19 00:25:30;;;;;;;;;;;7.90;99.90;;;;;;5047986;28;19932;-79
2023/05/19 00:27:57;;;;;;;;;;;7.90;99.90;;;;;;5096037;28;19935;-78
2023/05/19 00:30:22;;;;;;;;;;;7.90;99.90;;;;;;5068549;28;20310;-78
2023/05/19 00:32:48;;;;;;;;;;;7.90;99.90;;;;;;5081812;28;19923;-79
2023/05/19 00:35:14;;;;;;;;;;;7.90;99.90;;;;;;5070236;28;19924;-78
2023/05/19 00:37:40;;;;;;;;;;;7.90;99.90;;;;;;5070216;28;19924;-78
2023/05/19 00:40:06;;;;;;;;;;;7.80;99.90;;;;;;5093397;28;19924;-77
2023/05/19 00:42:31;;;;;;;;;;;7.80;99.90;;;;;;5081197;28;19934;-78
2023/05/19 00:44:57;;;;;;;;;;;7.80;99.90;;;;;;5100867;28;20043;-78
2023/05/19 00:47:22;;;;;;;;;;;7.80;99.90;;;;;;5038622;28;20302;-78
2023/05/19 00:49:48;;;;;;;;;;;7.80;99.90;;;;;;5094411;28;19924;-78
2023/05/19 00:52:14;;;;;;;;;;;7.80;99.90;;;;;;5049995;28;20007;-78
2023/05/19 00:54:39;;;;;;;;;;;7.70;99.90;;;;;;5096504;28;19924;-78
2023/05/19 00:57:05;;;;;;;;;;;7.70;99.90;;;;;;5052132;28;19999;-78
2023/05/19 00:59:30;;;;;;;;;;;7.70;99.90;;;;;;5066970;28;20077;-78
2023/05/19 01:01:56;;;;;;;;;;;7.70;99.90;;;;;;5055046;28;19950;-78
2023/05/19 01:04:24;;;;;;;;;;;7.60;99.90;;;;;;5091648;28;19932;-78
2023/05/19 01:06:53;;;;;;;;;;;7.70;99.90;;;;;;5096615;28;20047;-78
2023/05/19 01:09:22;;;;;;;;;;;7.60;99.90;;;;;;5060611;28;20141;-78
2023/05/19 01:11:51;;;;;;;;;;;7.60;99.90;;;;;;5095885;28;20002;-78
2023/05/19 01:14:17;;;;;;;;;;;7.60;99.90;;;;;;5044698;28;19934;-78
2023/05/19 01:16:49;;;;;;;;;;;7.60;99.90;;;;;;5079951;28;20014;-78
2023/05/19 01:19:39;;;;;;;;;;;7.60;99.90;;;;;;5082522;28;19935;-78
2023/05/19 01:22:11;;;;;;;;;;;7.60;99.90;;;;;;5085302;28;19923;-78
2023/05/19 01:24:37;;;;;;;;;;;7.60;99.90;;;;;;5080328;28;19927;-78
2023/05/19 01:27:18;;;;;;;;;;;7.60;99.90;;;;;;5083577;28;19923;-78
2023/05/19 01:29:44;;;;;;;;;;;7.60;99.90;;;;;;5102496;28;19930;-78
2023/05/19 01:32:10;;;;;;;;;;;7.60;99.90;;;;;;5085335;28;20353;-77
2023/05/19 01:34:38;;;;;;;;;;;7.60;99.90;;;;;;5060043;28;19932;-78
2023/05/19 01:37:04;;;;;;;;;;;7.60;99.90;;;;;;5073632;28;19924;-78
2023/05/19 01:39:31;;;;;;;;;;;7.60;99.90;;;;;;5053935;28;20013;-78
2023/05/19 01:41:57;;;;;;;;;;;7.60;99.90;;;;;;5070933;28;19924;-78
2023/05/19 01:44:22;;;;;;;;;;;7.50;99.90;;;;;;5080466;28;19946;-78
2023/05/19 01:46:48;;;;;;;;;;;7.50;99.90;;;;;;5064829;28;19975;-78
2023/05/19 01:49:14;;;;;;;;;;;7.50;99.90;;;;;;5085759;28;19935;-78
2023/05/19 01:51:40;;;;;;;;;;;7.50;99.90;;;;;;5076632;28;19961;-78
2023/05/19 01:54:05;;;;;;;;;;;7.50;99.90;;;;;;5086771;28;19928;-77
2023/05/19 01:56:44;;;;;;;;;;;7.40;99.90;;;;;;5092673;28;19983;-78
2023/05/19 01:59:16;;;;;;;;;;;7.40;99.90;;;;;;5069764;28;19928;-78
2023/05/19 02:01:45;;;;;;;;;;;7.40;99.90;;;;;;5067220;28;19924;-78
2023/05/19 02:04:13;;;;;;;;;;;7.40;99.90;;;;;;5066579;28;19927;-78
2023/05/19 02:06:45;;;;;;;;;;;7.40;99.90;;;;;;5066139;28;19924;-78
2023/05/19 02:09:14;;;;;;;;;;;7.30;99.90;;;;;;5097694;28;20014;-78
2023/05/19 02:11:53;;;;;;;;;;;7.40;99.90;;;;;;5076517;28;20382;-78
2023/05/19 02:14:21;;;;;;;;;;;7.30;99.90;;;;;;5068677;28;19979;-77
2023/05/19 02:16:47;;;;;;;;;;;7.30;99.90;;;;;;5070181;28;20347;-78
2023/05/19 02:19:39;;;;;;;;;;;7.30;99.90;;;;;;5076736;28;20275;-78
2023/05/19 02:22:05;;;;;;;;;;;7.30;99.90;;;;;;5072084;28;19928;-78
2023/05/19 02:24:30;;;;;;;;;;;7.30;99.90;;;;;;5077614;28;19932;-78
2023/05/19 02:26:56;;;;;;;;;;;7.30;99.90;;;;;;5069922;28;19924;-78
2023/05/19 02:29:21;;;;;;;;;;;7.30;99.90;;;;;;5077285;28;19935;-78
2023/05/19 02:31:47;;;;;;;;;;;7.30;99.90;;;;;;5055609;28;19933;-78
2023/05/19 02:34:13;;;;;;;;;;;7.30;99.90;;;;;;5077422;28;19946;-78
2023/05/19 02:36:42;;;;;;;;;;;7.30;99.90;;;;;;5078672;28;19938;-78
2023/05/19 02:39:08;;;;;;;;;;;7.30;99.90;;;;;;5062197;28;19939;-78
2023/05/19 02:41:34;;;;;;;;;;;7.30;99.90;;;;;;5062797;28;19924;-78
2023/05/19 02:43:59;;;;;;;;;;;7.30;99.90;;;;;;5046704;28;19934;-78
2023/05/19 02:46:25;;;;;;;;;;;7.30;99.90;;;;;;5078387;28;19924;-78
2023/05/19 02:48:52;;;;;;;;;;;7.20;99.90;;;;;;5078668;28;19933;-77
2023/05/19 02:51:17;;;;;;;;;;;7.20;99.90;;;;;;5061508;28;19932;-78
2023/05/19 02:53:43;;;;;;;;;;;7.20;99.90;;;;;;5072024;28;19931;-78
2023/05/19 02:56:09;;;;;;;;;;;7.10;99.90;;;;;;5079103;28;19925;-78
2023/05/19 02:58:34;;;;;;;;;;;7.10;99.90;;;;;;5079854;28;19925;-78
2023/05/19 03:01:00;;;;;;;;;;;7.10;99.90;;;;;;5047583;28;19924;-78
2023/05/19 03:03:25;;;;;;;;;;;7.10;99.90;;;;;;5045816;28;20019;-78
2023/05/19 03:05:52;;;;;;;;;;;7.10;99.90;;;;;;5047911;28;19928;-78
2023/05/19 03:08:18;;;;;;;;;;;7.10;99.90;;;;;;5079180;28;19935;-78
2023/05/19 03:10:47;;;;;;;;;;;7.00;99.90;;;;;;5044270;28;19954;-78
2023/05/19 03:13:13;;;;;;;;;;;7.00;99.90;;;;;;5056356;28;19979;-77
2023/05/19 03:15:38;;;;;;;;;;;6.90;99.90;;;;;;5062823;28;19924;-78
2023/05/19 03:18:04;;;;;;;;;;;6.90;99.90;;;;;;5050992;28;19928;-77
2023/05/19 03:20:29;;;;;;;;;;;6.90;99.90;;;;;;5081240;28;19946;-78
2023/05/19 03:22:55;;;;;;;;;;;6.90;99.90;;;;;;5068253;28;19945;-78
2023/05/19 03:25:21;;;;;;;;;;;6.90;99.90;;;;;;5054302;28;19928;-77
2023/05/19 03:27:47;;;;;;;;;;;6.90;99.90;;;;;;5050689;28;19924;-78
2023/05/19 03:30:12;;;;;;;;;;;6.90;99.90;;;;;;5073097;28;20028;-77
2023/05/19 03:32:38;;;;;;;;;;;6.90;99.90;;;;;;5083485;28;19934;-78
2023/05/19 03:35:04;;;;;;;;;;;6.90;99.90;;;;;;5066918;28;20006;-78
2023/05/19 03:37:31;;;;;;;;;;;6.90;99.90;;;;;;5066501;28;19959;-77
2023/05/19 03:39:57;;;;;;;;;;;6.90;99.90;;;;;;5050128;28;19931;-77
2023/05/19 03:42:22;;;;;;;;;;;6.80;99.90;;;;;;5065210;28;19927;-77
2023/05/19 03:44:48;;;;;;;;;;;6.80;99.90;;;;;;5085435;28;19928;-77
2023/05/19 03:47:14;;;;;;;;;;;6.80;99.90;;;;;;5052709;28;20011;-77
2023/05/19 03:49:39;;;;;;;;;;;6.80;99.90;;;;;;5096288;28;20021;-77
2023/05/19 03:52:05;;;;;;;;;;;6.80;99.90;;;;;;5052900;28;20015;-78
2023/05/19 03:54:31;;;;;;;;;;;6.80;99.90;;;;;;5053024;28;19924;-77
2023/05/19 03:56:56;;;;;;;;;;;6.80;99.90;;;;;;5049823;28;19924;-77
2023/05/19 03:59:22;;;;;;;;;;;6.80;99.90;;;;;;5063434;28;19931;-77
2023/05/19 04:01:48;;;;;;;;;;;6.80;99.90;;;;;;5050925;28;20321;-78
2023/05/19 04:04:13;;;;;;;;;;;6.80;99.90;;;;;;5047704;28;20297;-77
2023/05/19 04:06:39;;;;;;;;;;;6.80;99.90;;;;;;5059910;28;19936;-77
2023/05/19 04:09:10;;;;;;;;;;;6.80;99.90;;;;;;5065502;28;19956;-77
2023/05/19 04:11:36;;;;;;;;;;;6.80;99.90;;;;;;5082492;28;20027;-78
2023/05/19 04:14:01;;;;;;;;;;;6.80;99.90;;;;;;5049698;28;20460;-77
2023/05/19 04:16:27;;;;;;;;;;;6.90;99.90;;;;;;5075634;28;19929;-77
2023/05/19 04:18:53;;;;;;;;;;;6.90;99.90;;;;;;5083293;28;19925;-78
2023/05/19 04:21:21;;;;;;;;;;;6.90;99.90;;;;;;5063643;28;19928;-78
2023/05/19 04:23:46;;;;;;;;;;;6.90;99.90;;;;;;5064340;28;20298;-78
2023/05/19 04:26:13;;;;;;;;;;;7.00;99.90;;;;;;5080253;28;19956;-76
2023/05/19 04:28:41;;;;;;;;;;;7.10;99.90;;;;;;5081918;28;19932;-78
2023/05/19 04:31:11;;;;;;;;;;;7.10;99.90;;;;;;5083047;28;19924;-77
2023/05/19 04:33:37;;;;;;;;;;;7.20;99.90;;;;;;5051490;28;19939;-78
2023/05/19 04:36:07;;;;;;;;;;;7.20;99.90;;;;;;5055191;28;19932;-78
2023/05/19 04:38:36;;;;;;;;;;;7.30;99.90;;;;;;5065243;28;19946;-78
2023/05/19 04:41:02;;;;;;;;;;;7.40;99.90;;;;;;5064340;28;20425;-77
2023/05/19 04:43:28;;;;;;;;;;;7.50;99.90;;;;;;5069891;28;19928;-77
2023/05/19 04:45:54;;;;;;;;;;;7.70;99.90;;;;;;5063707;28;20019;-77
2023/05/19 04:48:22;;;;;;;;;;;7.80;99.90;;;;;;5049186;28;20011;-77
2023/05/19 04:50:48;;;;;;;;;;;8.00;99.90;;;;;;5096673;28;20003;-77
2023/05/19 04:53:14;;;;;;;;;;;8.10;99.90;;;;;;5045417;28;19940;-77
2023/05/19 04:55:39;;;;;;;;;;;8.20;99.90;;;;;;5047320;28;20368;-78
2023/05/19 04:58:05;;;;;;;;;;;8.40;99.90;;;;;;5053476;28;20000;-77
2023/05/19 05:00:31;;;;;;;;;;;8.70;99.90;;;;;;5064701;28;19995;-78
2023/05/19 05:02:57;;;;;;;;;;;9.00;99.90;;;;;;5071154;28;19991;-78
2023/05/19 05:05:23;;;;;;;;;;;9.10;99.90;;;;;;5064650;28;19939;-77
2023/05/19 05:07:49;;;;;;;;;;;9.40;99.90;;;;;;5080390;28;19924;-78
2023/05/19 05:10:14;;;;;;;;;;;9.70;99.90;;;;;;5065122;28;19928;-78
2023/05/19 05:12:40;;;;;;;;;;;10.00;99.90;;;;;;5064490;28;19970;-78
2023/05/19 05:15:06;;;;;;;;;;;10.30;99.90;;;;;;5081084;28;19970;-78
2023/05/19 05:17:34;;;;;;;;;;;10.60;99.90;;;;;;5066640;28;19977;-78
2023/05/19 05:20:01;;;;;;;;;;;11.00;99.90;;;;;;5070990;28;19945;-78
2023/05/19 05:22:26;;;;;;;;;;;11.40;99.90;;;;;;5088087;28;20525;-78
2023/05/19 05:24:52;;;;;;;;;;;11.60;99.90;;;;;;5068462;28;19924;-78
2023/05/19 05:27:17;;;;;;;;;;;11.70;99.90;;;;;;5062582;28;20022;-78
2023/05/19 05:29:46;;;;;;;;;;;11.80;99.90;;;;;;5078243;28;19968;-78
2023/05/19 05:32:12;;;;;;;;;;;12.20;99.90;;;;;;5048349;28;19928;-78
2023/05/19 05:34:39;;;;;;;;;;;12.50;99.90;;;;;;5086068;28;19928;-78
2023/05/19 05:37:04;;;;;;;;;;;12.90;99.90;;;;;;5097283;28;19924;-78
2023/05/19 05:39:30;;;;;;;;;;;13.30;99.90;;;;;;5079242;28;19924;-78
2023/05/19 05:41:56;;;;;;;;;;;13.60;99.90;;;;;;5074672;28;19924;-78
2023/05/19 05:44:21;;;;;;;;;;;13.80;99.90;;;;;;5096421;28;19978;-80
2023/05/19 05:46:47;;;;;;;;;;;14.10;99.90;;;;;;5046038;28;20430;-80
2023/05/19 05:49:13;;;;;;;;;;;14.10;99.90;;;;;;5057559;28;19931;-80
2023/05/19 05:51:38;;;;;;;;;;;14.10;99.90;;;;;;5078974;28;19946;-80
2023/05/19 05:54:05;;;;;;;;;;;14.30;99.90;;;;;;5062992;28;19931;-79
2023/05/19 05:56:32;;;;;;;;;;;14.30;99.90;;;;;;5064082;28;19977;-80
2023/05/19 05:58:58;;;;;;;;;;;14.30;99.90;;;;;;5046241;28;20512;-80
2023/05/19 06:01:24;;;;;;;;;;;14.20;99.90;;;;;;5081590;28;19932;-80
2023/05/19 06:03:49;;;;;;;;;;;14.20;99.90;;;;;;5062807;28;20412;-80
2023/05/19 06:06:15;;;;;;;;;;;14.40;99.90;;;;;;5047129;28;19991;-80
2023/05/19 06:08:40;;;;;;;;;;;14.80;99.90;;;;;;5060552;28;19931;-78
2023/05/19 06:11:09;;;;;;;;;;;15.20;99.90;;;;;;5061511;28;19966;-81
2023/05/19 06:13:35;;;;;;;;;;;15.60;99.90;;;;;;5063681;28;19995;-81
2023/05/19 06:16:01;;;;;;;;;;;16.10;99.90;;;;;;5062097;28;19924;-81
2023/05/19 06:18:26;;;;;;;;;;;16.40;99.90;;;;;;5082572;28;20015;-80
2023/05/19 06:20:52;;;;;;;;;;;16.70;99.90;;;;;;5067256;28;19935;-81
2023/05/19 06:23:18;;;;;;;;;;;16.90;99.90;;;;;;5077817;28;19947;-81
2023/05/19 06:25:43;;;;;;;;;;;16.90;99.90;;;;;;5077019;28;19975;-80
2023/05/19 06:28:09;;;;;;;;;;;17.10;99.90;;;;;;5074733;28;19975;-81
2023/05/19 06:30:35;;;;;;;;;;;17.30;99.90;;;;;;5072393;28;19924;-80
2023/05/19 06:33:02;;;;;;;;;;;17.40;99.90;;;;;;5050655;28;20007;-81
2023/05/19 06:35:27;;;;;;;;;;;17.40;99.90;;;;;;5055825;28;19935;-80
2023/05/19 06:37:55;;;;;;;;;;;17.50;99.90;;;;;;5063090;28;19924;-81
2023/05/19 06:40:21;;;;;;;;;;;17.70;99.90;;;;;;5081172;28;19931;-81
2023/05/19 06:42:46;;;;;;;;;;;18.00;99.90;;;;;;5096167;28;19924;-81
2023/05/19 06:45:12;;;;;;;;;;;18.20;99.90;;;;;;5063401;28;19924;-81
2023/05/19 06:47:40;;;;;;;;;;;18.60;99.90;;;;;;5078637;28;19928;-81
2023/05/19 06:50:06;;;;;;;;;;;18.90;99.90;;;;;;5079214;28;19928;-81
2023/05/19 06:52:31;;;;;;;;;;;19.20;97.20;;;;;;5058238;28;19925;-80
2023/05/19 06:54:57;;;;;;;;;;;19.40;94.90;;;;;;5087710;28;20425;-80
2023/05/19 06:57:22;;;;;;;;;;;19.40;99.40;;;;;;5054500;28;19924;-80
2023/05/19 06:59:48;;;;;;;;;;;19.40;97.50;;;;;;5078459;28;20351;-81
2023/05/19 07:02:13;;;;;;;;;;;19.50;98.60;;;;;;5068144;28;20431;-81
2023/05/19 07:04:39;;;;;;;;;;;19.30;93.30;;;;;;5067175;28;19987;-81
2023/05/19 07:07:05;;;;;;;;;;;19.00;96.00;;;;;;5082986;28;19924;-80
2023/05/19 07:09:31;;;;;;;;;;;19.00;96.40;;;;;;5068657;28;19928;-81
2023/05/19 07:11:56;;;;;;;;;;;19.00;89.40;;;;;;5064472;28;19924;-81
2023/05/19 07:14:22;;;;;;;;;;;18.90;95.90;;;;;;5102357;28;19962;-81
2023/05/19 07:16:47;;;;;;;;;;;19.00;98.00;;;;;;5053491;28;20065;-81
2023/05/19 07:19:13;;;;;;;;;;;19.10;94.60;;;;;;5060200;28;19924;-81
2023/05/19 07:21:41;;;;;;;;;;;19.20;95.50;;;;;;5093995;28;19928;-81
2023/05/19 07:24:06;;;;;;;;;;;19.40;94.10;;;;;;5063070;28;19981;-80
2023/05/19 07:26:32;;;;;;;;;;;19.40;74.10;;;;;;5059065;28;19924;-80
2023/05/19 07:28:58;;;;;;;;;;;19.60;92.00;;;;;;5057568;28;19929;-80
2023/05/19 07:31:23;;;;;;;;;;;19.60;91.30;;;;;;5099495;28;19971;-80
2023/05/19 07:33:49;;;;;;;;;;;19.60;80.30;;;;;;5045780;28;19924;-80
2023/05/19 07:36:15;;;;;;;;;;;19.60;88.60;;;;;;5081564;28;19930;-80
2023/05/19 07:38:40;;;;;;;;;;;19.60;85.40;;;;;;5083246;28;19935;-80
2023/05/19 07:41:06;;;;;;;;;;;19.70;86.20;;;;;;5099371;28;19925;-80
2023/05/19 07:43:31;;;;;;;;;;;19.90;85.70;;;;;;5050294;28;20003;-80
2023/05/19 07:45:57;;;;;;;;;;;19.90;92.30;;;;;;5066751;28;19977;-80
2023/05/19 07:48:24;;;;;;;;;;;20.00;81.50;;;;;;5067123;28;20261;-80
2023/05/19 07:50:50;;;;;;;;;;;20.00;81.50;;;;;;5082481;28;19950;-80
2023/05/19 07:53:16;;;;;;;;;;;20.10;73.90;;;;;;5067421;28;19925;-80
2023/05/19 07:55:41;;;;;;;;;;;20.10;72.90;;;;;;5082361;28;19927;-80
2023/05/19 07:58:07;;;;;;;;;;;20.10;80.70;;;;;;5050160;28;19988;-80
2023/05/19 08:00:32;;;;;;;;;;;20.10;85.00;;;;;;5051124;28;20308;-79
2023/05/19 08:02:58;;;;;;;;;;;20.10;77.20;;;;;;5079510;28;19950;-81
2023/05/19 08:05:28;;;;;;;;;;;20.30;78.60;;;;;;5066736;28;19939;-80
2023/05/19 08:07:54;;;;;;;;;;;20.50;68.10;;;;;;5091223;28;19924;-80
2023/05/19 08:10:20;;;;;;;;;;;20.60;74.40;;;;;;5068509;28;19924;-82
2023/05/19 08:12:45;;;;;;;;;;;20.80;70.90;;;;;;5063901;28;19935;-82
2023/05/19 08:15:11;;;;;;;;;;;20.80;72.90;;;;;;5082037;28;19928;-81
2023/05/19 08:17:37;;;;;;;;;;;20.70;71.60;;;;;;5055971;28;19959;-82
2023/05/19 08:20:05;;;;;;;;;;;20.50;69.50;;;;;;5065577;28;19924;-82
2023/05/19 08:22:30;;;;;;;;;;;20.40;70.20;;;;;;5068742;28;19969;-83
2023/05/19 08:24:56;;;;;;;;;;;20.10;74.60;;;;;;5081240;28;20326;-81
2023/05/19 08:27:22;;;;;;;;;;;20.00;70.80;;;;;;5084328;28;19931;-81
2023/05/19 08:29:48;;;;;;;;;;;20.10;72.90;;;;;;5048429;28;19929;-82
2023/05/19 08:32:13;;;;;;;;;;;20.10;71.70;;;;;;5058885;28;19931;-82
2023/05/19 08:34:40;;;;;;;;;;;20.20;76.80;;;;;;5065221;28;19924;-81
2023/05/19 08:37:06;;;;;;;;;;;20.10;76.80;;;;;;5051418;28;19993;-81
2023/05/19 08:39:33;;;;;;;;;;;20.10;67.60;;;;;;5061679;28;19970;-81
2023/05/19 08:41:58;;;;;;;;;;;19.90;60.50;;;;;;5079737;28;20406;-81
2023/05/19 08:44:25;;;;;;;;;;;19.90;70.00;;;;;;5078983;28;19924;-81
2023/05/19 08:46:53;;;;;;;;;;;20.00;61.90;;;;;;5054497;28;19934;-82
2023/05/19 08:49:22;;;;;;;;;;;20.10;66.40;;;;;;5072643;28;19928;-83
2023/05/19 08:51:53;;;;;;;;;;;20.40;69.20;;;;;;5113307;28;20056;-83
2023/05/19 08:54:21;;;;;;;;;;;20.50;67.60;;;;;;5098179;28;19963;-82
2023/05/19 08:56:47;;;;;;;;;;;20.40;63.40;;;;;;5065855;28;19931;-82
2023/05/19 08:59:14;;;;;;;;;;;20.30;73.50;;;;;;5045412;28;19925;-82
2023/05/19 09:01:41;;;;;;;;;;;20.10;66.40;;;;;;5059577;28;19974;-82
2023/05/19 09:04:07;;;;;;;;;;;20.00;66.60;;;;;;5064606;28;19935;-82
2023/05/19 09:06:33;;;;;;;;;;;20.10;68.20;;;;;;5065107;28;19924;-82
2023/05/19 09:08:59;;;;;;;;;;;20.20;75.40;;;;;;5092730;28;19928;-83
2023/05/19 09:11:24;;;;;;;;;;;20.40;74.00;;;;;;5040877;28;20010;-83
2023/05/19 09:13:50;;;;;;;;;;;20.60;69.80;;;;;;5082240;28;19928;-83
2023/05/19 09:16:16;;;;;;;;;;;20.50;63.20;;;;;;5080279;28;20343;-84
2023/05/19 09:18:55;;;;;;;;;;;20.50;64.40;;;;;;5074029;28;20390;-83
2023/05/19 09:21:29;;;;;;;;;;;20.60;60.40;;;;;;5064095;28;20374;-82
2023/05/19 09:23:56;;;;;;;;;;;20.50;66.40;;;;;;5063863;28;19991;-83
2023/05/19 09:26:22;;;;;;;;;;;20.50;64.00;;;;;;5092918;28;19998;-82
2023/05/19 09:28:47;;;;;;;;;;;20.60;63.80;;;;;;5063717;28;20420;-82
2023/05/19 09:31:13;;;;;;;;;;;20.60;61.00;;;;;;5081135;28;19935;-82
2023/05/19 09:33:41;;;;;;;;;;;20.40;60.60;;;;;;5062691;28;19924;-82
2023/05/19 09:36:07;;;;;;;;;;;20.30;69.40;;;;;;5065003;28;19985;-83
2023/05/19 09:38:33;;;;;;;;;;;20.40;68.90;;;;;;5066397;28;20383;-82
2023/05/19 09:40:59;;;;;;;;;;;20.50;64.60;;;;;;5080600;28;19928;-82
2023/05/19 09:43:29;;;;;;;;;;;20.80;68.20;;;;;;5064568;28;19929;-83
2023/05/19 09:45:58;;;;;;;;;;;21.10;63.60;;;;;;5064274;28;19993;-82
2023/05/19 09:48:25;;;;;;;;;;;21.30;60.90;;;;;;5065088;28;20292;-81
2023/05/19 09:50:51;;;;;;;;;;;21.20;60.00;;;;;;5072635;28;19935;-82
2023/05/19 09:53:17;;;;;;;;;;;21.10;63.70;;;;;;5048711;28;19931;-84
2023/05/19 09:55:43;;;;;;;;;;;20.90;64.00;;;;;;5072770;28;20007;-86
2023/05/19 09:58:08;;;;;;;;;;;20.60;57.40;;;;;;5046240;28;19924;-84
2023/05/19 10:00:34;;;;;;;;;;;20.40;64.10;;;;;;5040782;28;20073;-83
2023/05/19 10:03:02;;;;;;;;;;;20.40;65.50;;;;;;5065423;28;19924;-84
2023/05/19 10:05:28;;;;;;;;;;;20.40;58.30;;;;;;5064607;28;19928;-83
2023/05/19 10:07:54;;;;;;;;;;;20.60;66.00;;;;;;5046494;28;20011;-84
2023/05/19 10:10:20;;;;;;;;;;;20.80;62.80;;;;;;5115964;28;19924;-84
2023/05/19 10:12:47;;;;;;;;;;;20.90;60.00;;;;;;5063239;28;19928;-85
2023/05/19 10:15:13;;;;;;;;;;;21.10;60.50;;;;;;5095505;28;19931;-84
2023/05/19 10:17:40;;;;;;;;;;;21.30;59.10;;;;;;5051523;28;20410;-84
2023/05/19 10:20:07;;;;;;;;;;;21.40;61.80;;;;;;5062166;28;19991;-84
2023/05/19 10:22:33;;;;;;;;;;;21.40;62.90;;;;;;5066161;28;20018;-83
2023/05/19 10:24:59;;;;;;;;;;;21.60;57.10;;;;;;5059030;28;19929;-84
2023/05/19 10:27:26;;;;;;;;;;;21.70;59.20;;;;;;5086584;28;20007;-84
2023/05/19 10:29:53;;;;;;;;;;;21.50;50.80;;;;;;5094536;28;19946;-84
2023/05/19 10:32:21;;;;;;;;;;;21.50;56.00;;;;;;5067885;28;19955;-82
2023/05/19 10:35:06;;;;;;;;;;;21.10;51.80;;;;;;5067506;28;19923;-82
2023/05/19 10:37:35;;;;;;;;;;;21.10;58.30;;;;;;5100592;28;19967;-84
2023/05/19 10:40:07;;;;;;;;;;;21.20;56.10;;;;;;5068448;28;20259;-83
2023/05/19 10:42:33;;;;;;;;;;;21.40;62.10;;;;;;5067015;28;19927;-83
2023/05/19 10:45:08;;;;;;;;;;;21.60;55.30;;;;;;5081336;28;19924;-82
2023/05/19 10:47:34;;;;;;;;;;;21.70;58.00;;;;;;5084081;28;19924;-83
2023/05/19 10:50:00;;;;;;;;;;;21.80;56.20;;;;;;5082579;28;20402;-82
2023/05/19 10:52:28;;;;;;;;;;;21.80;54.10;;;;;;5068470;28;19924;-83
2023/05/19 10:54:54;;;;;;;;;;;21.70;54.80;;;;;;5045597;28;20451;-83
2023/05/19 10:57:31;;;;;;;;;;;21.60;58.10;;;;;;5055309;28;19924;-83
2023/05/19 10:59:57;;;;;;;;;;;21.50;54.40;;;;;;5099369;28;19931;-83
2023/05/19 11:02:39;;;;;;;;;;;21.40;56.90;;;;;;5067591;28;19947;-84
2023/05/19 11:05:08;;;;;;;;;;;21.40;59.90;;;;;;5066987;28;19924;-83
2023/05/19 11:07:34;;;;;;;;;;;21.40;57.50;;;;;;5061036;28;19995;-83
2023/05/19 11:10:04;;;;;;;;;;;21.40;58.20;;;;;;5090778;28;19946;-83
2023/05/19 11:12:38;;;;;;;;;;;21.40;57.10;;;;;;5067435;28;19924;-83
2023/05/19 11:15:04;;;;;;;;;;;21.40;56.70;;;;;;5070205;28;19932;-84
2023/05/19 11:17:29;;;;;;;;;;;21.40;56.60;;;;;;5059830;28;19934;-82
2023/05/19 11:19:57;;;;;;;;;;;21.40;58.10;;;;;;5050041;28;19951;-80
2023/05/19 11:22:24;;;;;;;;;;;21.50;54.50;;;;;;5083001;28;19938;-81
2023/05/19 11:24:52;;;;;;;;;;;21.50;54.70;;;;;;5063849;28;19962;-82
2023/05/19 11:27:23;;;;;;;;;;;21.60;55.10;;;;;;5069232;28;19931;-82
2023/05/19 11:29:50;;;;;;;;;;;21.60;55.90;;;;;;5069835;28;19928;-82
2023/05/19 11:32:15;;;;;;;;;;;21.50;56.00;;;;;;5100023;28;20299;-82
2023/05/19 11:34:42;;;;;;;;;;;21.50;56.50;;;;;;5057147;28;19924;-82
2023/05/19 11:37:08;;;;;;;;;;;21.50;53.90;;;;;;5063116;28;19942;-79
2023/05/19 11:39:34;;;;;;;;;;;21.50;55.30;;;;;;5065779;28;19928;-81
2023/05/19 11:42:00;;;;;;;;;;;21.50;56.90;;;;;;5062916;28;19931;-81
2023/05/19 11:44:25;;;;;;;;;;;21.30;56.60;;;;;;5079280;28;19925;-81
2023/05/19 11:46:51;;;;;;;;;;;21.20;55.60;;;;;;5050360;28;19928;-81
2023/05/19 11:49:17;;;;;;;;;;;21.30;55.30;;;;;;5095580;28;20057;-81
2023/05/19 11:51:43;;;;;;;;;;;21.30;57.00;;;;;;5054831;28;19931;-82
2023/05/19 11:54:10;;;;;;;;;;;21.40;55.90;;;;;;5065388;28;19924;-82
2023/05/19 11:56:39;;;;;;;;;;;21.60;54.90;;;;;;5062368;28;19932;-82
2023/05/19 11:59:05;;;;;;;;;;;21.80;55.50;;;;;;5057948;28;20504;-81
2023/05/19 12:01:30;;;;;;;;;;;21.90;55.70;;;;;;5076516;28;19927;-80
2023/05/19 12:03:56;;;;;;;;;;;21.80;55.20;;;;;;5061429;28;19924;-80
2023/05/19 12:06:22;;;;;;;;;;;21.70;53.60;;;;;;5083250;28;19924;-79
2023/05/19 12:08:50;;;;;;;;;;;21.60;56.30;;;;;;5065917;28;19928;-80
2023/05/19 12:11:15;;;;;;;;;;;21.70;55.60;;;;;;5066546;28;19958;-80
2023/05/19 12:13:41;;;;;;;;;;;21.70;54.80;;;;;;5101663;28;19928;-80
2023/05/19 12:16:07;;;;;;;;;;;21.50;54.40;;;;;;5049357;28;20387;-80
2023/05/19 12:18:35;;;;;;;;;;;21.40;55.30;;;;;;5067012;28;20037;-80
2023/05/19 12:21:01;;;;;;;;;;;21.40;53.80;;;;;;5065456;28;19931;-77
2023/05/19 12:23:29;;;;;;;;;;;21.30;54.50;;;;;;5065934;28;19924;-79
2023/05/19 12:25:56;;;;;;;;;;;21.40;54.90;;;;;;5081847;28;19924;-80
2023/05/19 12:28:21;;;;;;;;;;;21.30;53.30;;;;;;5065927;28;19924;-80
2023/05/19 12:30:51;;;;;;;;;;;21.40;55.20;;;;;;5066277;28;19935;-80
2023/05/19 12:33:18;;;;;;;;;;;21.40;57.50;;;;;;5098698;28;20382;-82
2023/05/19 12:35:44;;;;;;;;;;;21.50;55.80;;;;;;5066562;28;19924;-80
2023/05/19 12:38:10;;;;;;;;;;;21.40;53.90;;;;;;5065131;28;19935;-81
2023/05/19 12:40:36;;;;;;;;;;;21.30;54.80;;;;;;5054826;28;19928;-81
2023/05/19 12:43:02;;;;;;;;;;;21.50;55.00;;;;;;5062618;28;19924;-81
2023/05/19 12:45:32;;;;;;;;;;;21.70;53.90;;;;;;5066771;28;19935;-81
2023/05/19 12:48:01;;;;;;;;;;;21.80;54.20;;;;;;5065935;28;19929;-80
2023/05/19 12:50:30;;;;;;;;;;;22.00;53.50;;;;;;5115672;28;19950;-81
2023/05/19 12:52:57;;;;;;;;;;;21.90;53.70;;;;;;5065525;28;19931;-80
2023/05/19 12:55:23;;;;;;;;;;;21.70;53.10;;;;;;5048052;28;19924;-80
2023/05/19 12:57:58;;;;;;;;;;;21.40;51.70;;;;;;5099229;28;19935;-81
2023/05/19 13:00:26;;;;;;;;;;;21.10;53.10;;;;;;5068449;28;19928;-80
2023/05/19 13:02:55;;;;;;;;;;;20.80;53.70;;;;;;5081826;28;19931;-80
2023/05/19 13:05:21;;;;;;;;;;;20.90;54.70;;;;;;5051710;28;19923;-79
2023/05/19 13:07:53;;;;;;;;;;;20.90;50.90;;;;;;5075209;28;19932;-83
2023/05/19 13:10:19;;;;;;;;;;;20.70;54.10;;;;;;5060170;28;20412;-82
2023/05/19 13:12:44;;;;;;;;;;;20.60;55.40;;;;;;5078369;28;19959;-82
2023/05/19 13:15:10;;;;;;;;;;;20.40;55.50;;;;;;5095457;28;20496;-83
2023/05/19 13:17:36;;;;;;;;;;;20.40;54.80;;;;;;5078115;28;19924;-82
2023/05/19 13:20:03;;;;;;;;;;;20.60;55.30;;;;;;5095871;28;19971;-82
2023/05/19 13:22:29;;;;;;;;;;;20.70;54.50;;;;;;5078496;28;20005;-83
2023/05/19 13:24:57;;;;;;;;;;;20.70;54.20;;;;;;5095019;28;20383;-84
2023/05/19 13:27:23;;;;;;;;;;;20.70;54.00;;;;;;5076198;28;20072;-83
2023/05/19 13:29:49;;;;;;;;;;;20.50;53.20;;;;;;5096627;28;20023;-85
2023/05/19 13:32:15;;;;;;;;;;;20.40;55.10;;;;;;5112784;28;20061;-85
2023/05/19 13:34:40;;;;;;;;;;;20.50;55.80;;;;;;5045938;28;19924;-83
2023/05/19 13:37:08;;;;;;;;;;;20.60;55.90;;;;;;5077006;28;19928;-83
2023/05/19 13:39:34;;;;;;;;;;;20.70;55.20;;;;;;5097450;28;19927;-83
2023/05/19 13:41:59;;;;;;;;;;;20.80;56.10;;;;;;5081935;28;19931;-82
2023/05/19 13:44:25;;;;;;;;;;;20.80;53.20;;;;;;5100728;28;19928;-83
2023/05/19 13:46:50;;;;;;;;;;;20.70;51.60;;;;;;5056713;28;19925;-83
2023/05/19 13:49:16;;;;;;;;;;;20.80;54.80;;;;;;5079898;28;19931;-83
2023/05/19 13:51:42;;;;;;;;;;;20.80;55.40;;;;;;5112735;28;19928;-82
2023/05/19 13:54:08;;;;;;;;;;;20.70;53.60;;;;;;5095221;28;19935;-83
2023/05/19 13:56:34;;;;;;;;;;;20.70;55.10;;;;;;5045781;28;20365;-83
2023/05/19 13:59:00;;;;;;;;;;;20.70;54.10;;;;;;5076817;28;19945;-84
2023/05/19 14:01:25;;;;;;;;;;;20.70;55.10;;;;;;5096529;28;19932;-83
2023/05/19 14:03:51;;;;;;;;;;;20.70;55.10;;;;;;5058752;28;19967;-83
2023/05/19 14:06:17;;;;;;;;;;;20.50;55.00;;;;;;5061705;28;19935;-82
2023/05/19 14:08:43;;;;;;;;;;;20.30;55.60;;;;;;5060557;28;19928;-81
2023/05/19 14:11:09;;;;;;;;;;;20.20;55.40;;;;;;5059114;28;20896;-83
2023/05/19 14:13:34;;;;;;;;;;;20.00;54.90;;;;;;5059902;28;20367;-82
2023/05/19 14:16:00;;;;;;;;;;;20.00;55.00;;;;;;5061602;28;19931;-85
2023/05/19 14:18:26;;;;;;;;;;;20.10;55.50;;;;;;5078235;28;19932;-82